Time;durP1;ratioP1;P1;durP2;ratioP2;P2;SDS_P1;SDS_P2;PMS_P1;PMS_P2;Temp;Humidity;BMP_temperature;BMP_pressure;BME280_temperature;BME280_humidity;BME280_pressure;Samples;Min_cycle;Max_cycle;Signal;HPM_P1;HPM_P2
2021/05/14 00:36:08;;;;;;;17.23;5.35;;;;;16.60;102113.00;;;;5044123;27;20419;-71
2021/05/14 00:38:35;;;;;;;9.40;5.88;;;;;16.50;102102.00;;;;5039307;28;20131;-69
2021/05/14 00:41:03;;;;;;;17.33;5.93;;;;;16.60;102108.00;;;;5045218;28;20076;-71
2021/05/14 00:43:30;;;;;;;10.18;5.93;;;;;16.50;102106.00;;;;5045198;28;20315;-72
2021/05/14 00:45:58;;;;;;;15.13;6.18;;;;;16.60;102127.00;;;;5047899;28;20041;-72
2021/05/14 00:48:24;;;;;;;12.30;6.50;;;;;16.50;102106.00;;;;5041464;28;20044;-72
2021/05/14 00:50:51;;;;;;;13.93;5.97;;;;;16.50;102104.00;;;;5045485;28;20047;-73
2021/05/14 00:53:17;;;;;;;10.95;5.78;;;;;16.30;102085.00;;;;5049324;28;20048;-75
2021/05/14 00:55:44;;;;;;;14.95;6.50;;;;;16.20;102112.00;;;;5035791;28;20527;-70
2021/05/14 00:58:10;;;;;;;13.48;6.82;;;;;16.10;102110.00;;;;5038146;28;20041;-74
2021/05/14 01:00:37;;;;;;;12.95;6.90;;;;;16.20;102104.00;;;;5050413;28;20041;-71
2021/05/14 01:03:03;;;;;;;15.27;7.45;;;;;16.20;102100.00;;;;5050068;28;20094;-72
2021/05/14 01:05:30;;;;;;;18.02;6.80;;;;;16.20;102097.00;;;;5049498;28;20121;-71
2021/05/14 01:07:56;;;;;;;12.63;6.93;;;;;16.10;102090.00;;;;5048015;28;20587;-72
2021/05/14 01:10:23;;;;;;;14.98;7.57;;;;;16.10;102091.00;;;;5049593;28;20049;-71
2021/05/14 01:12:49;;;;;;;13.25;6.32;;;;;16.30;102090.00;;;;5050060;28;20131;-69
2021/05/14 01:15:16;;;;;;;19.55;9.38;;;;;14.10;102091.00;;;;5035724;28;20043;-62
2021/05/14 01:17:43;;;;;;;16.17;8.73;;;;;12.50;102071.00;;;;5044837;28;21312;-62
2021/05/14 01:20:11;;;;;;;19.13;9.48;;;;;11.70;102061.00;;;;5031422;28;20128;-62
2021/05/14 01:22:37;;;;;;;14.10;8.85;;;;;11.40;102090.00;;;;5050110;28;20049;-62
2021/05/14 01:25:05;;;;;;;16.08;9.23;;;;;11.10;102065.00;;;;5061387;28;20056;-62
2021/05/14 01:27:32;;;;;;;16.13;9.10;;;;;11.00;102088.00;;;;5072253;28;20047;-63
2021/05/14 01:29:58;;;;;;;13.77;9.13;;;;;10.90;102083.00;;;;5048491;28;20085;-61
2021/05/14 01:32:25;;;;;;;18.13;9.13;;;;;10.80;102084.00;;;;5033564;28;20042;-62
2021/05/14 01:34:51;;;;;;;15.60;9.02;;;;;10.70;102075.00;;;;5037218;28;20480;-65
2021/05/14 10:10:50;;;;;;;5.50;2.97;;;;;11.10;102004.00;;;;5096476;27;20130;-67
2021/05/14 10:13:17;;;;;;;6.60;3.22;;;;;8.60;102007.00;;;;5099312;27;20040;-67
2021/05/14 10:15:44;;;;;;;19.55;3.88;;;;;7.80;102010.00;;;;5103522;27;20048;-70
2021/05/14 10:18:22;;;;;;;18.00;4.20;;;;;7.50;102007.00;;;;5108055;28;20031;-68
2021/05/14 10:20:54;;;;;;;10.85;3.90;;;;;7.60;102000.00;;;;5108772;28;20035;-69
2021/05/14 10:23:30;;;;;;;7.18;3.25;;;;;8.50;102001.00;;;;5108121;27;20106;-68
2021/05/14 10:26:11;;;;;;;45.83;3.85;;;;;8.80;101999.00;;;;5106231;27;20407;-70
2021/05/14 10:29:10;;;;;;;7.53;1.98;;;;;10.30;102003.00;;;;5101804;27;20045;-70
2021/05/14 10:31:56;;;;;;;21.60;3.25;;;;;10.20;101994.00;;;;5078963;28;20131;-68
2021/05/14 10:34:32;;;;;;;6.65;3.63;;;;;9.30;101995.00;;;;5057676;28;20055;-69
2021/05/14 10:37:02;;;;;;;7.97;3.72;;;;;9.20;102006.00;;;;5056485;28;20048;-70
2021/05/14 10:39:43;;;;;;;10.35;4.57;;;;;8.30;101993.00;;;;5057303;28;20579;-70
2021/05/14 10:42:38;;;;;;;7.80;4.30;;;;;7.40;101988.00;;;;5057220;28;20043;-67
2021/05/14 10:45:42;;;;;;;8.98;4.35;;;;;7.90;101990.00;;;;5057047;28;20036;-67
2021/05/14 10:48:25;;;;;;;7.55;3.67;;;;;8.10;101976.00;;;;5057399;28;20029;-70
2021/05/14 10:51:01;;;;;;;5.75;3.65;;;;;8.20;102009.00;;;;5056954;28;20063;-67
2021/05/14 10:53:49;;;;;;;7.35;3.95;;;;;8.60;102002.00;;;;5056716;28;22385;-67
2021/05/14 10:56:21;;;;;;;6.47;4.30;;;;;8.30;102003.00;;;;5056931;28;20044;-69
2021/05/14 10:59:07;;;;;;;6.65;5.13;;;;;7.90;101995.00;;;;5057359;28;20048;-67
2021/05/14 11:01:40;;;;;;;9.38;5.47;;;;;8.20;101968.00;;;;5056709;28;20060;-69
2021/05/14 11:04:09;;;;;;;8.40;5.03;;;;;8.30;102002.00;;;;5079730;28;20541;-67
2021/05/14 11:07:02;;;;;;;11.40;6.85;;;;;8.90;102011.00;;;;5076856;28;20135;-72
2021/05/14 11:09:28;;;;;;;10.82;7.45;;;;;9.00;101993.00;;;;5066024;28;20075;-70
2021/05/14 11:12:46;;;;;;;16.73;7.40;;;;;9.10;101992.00;;;;5031249;28;20056;-68
2021/05/14 11:15:21;;;;;;;16.83;12.77;;;;;9.60;102003.00;;;;5096910;27;20047;-68
2021/05/14 11:18:06;;;;;;;20.48;13.85;;;;;9.10;102011.00;;;;5098233;28;20027;-69
2021/05/14 11:20:42;;;;;;;31.17;17.70;;;;;9.20;101985.00;;;;5093747;28;20028;-70
2021/05/14 11:23:39;;;;;;;32.17;21.35;;;;;8.30;101985.00;;;;5084715;28;20043;-69
2021/05/14 11:26:33;;;;;;;22.13;14.20;;;;;8.00;101981.00;;;;5067305;28;20040;-70
2021/05/14 11:30:09;;;;;;;17.88;12.18;;;;;9.10;101971.00;;;;5026541;27;20486;-71
2021/05/14 11:32:45;;;;;;;16.15;9.63;;;;;9.30;101976.00;;;;5016239;28;20085;-72
2021/05/14 11:35:22;;;;;;;12.60;7.22;;;;;9.60;101950.00;;;;5014657;28;20707;-72
2021/05/14 11:38:09;;;;;;;9.93;6.78;;;;;10.10;101925.00;;;;5016216;28;20057;-72
2021/05/14 11:40:49;;;;;;;12.82;6.97;;;;;10.50;101925.00;;;;4967840;28;20052;-72
2021/05/14 11:43:24;;;;;;;7.25;5.65;;;;;10.30;101935.00;;;;4990381;28;20092;-75
2021/05/14 11:45:50;;;;;;;9.50;6.30;;;;;10.40;101945.00;;;;4988676;28;20562;-71
2021/05/14 11:48:18;;;;;;;7.93;5.97;;;;;11.40;101958.00;;;;4970997;28;20591;-68
2021/05/14 11:50:47;;;;;;;6.68;4.45;;;;;11.60;101929.00;;;;4985285;28;20046;-69
2021/05/14 11:53:19;;;;;;;10.63;5.35;;;;;11.70;101973.00;;;;4988878;28;20582;-70
2021/05/14 11:55:47;;;;;;;6.07;5.00;;;;;11.40;101959.00;;;;4987037;28;20053;-70
2021/05/14 11:58:26;;;;;;;8.27;5.80;;;;;11.00;101954.00;;;;4987500;28;20068;-70
2021/05/14 12:00:57;;;;;;;6.63;4.82;;;;;10.50;101994.00;;;;4989854;28;20913;-69
2021/05/14 12:03:25;;;;;;;6.28;4.47;;;;;10.60;102002.00;;;;4985711;28;20041;-72
2021/05/14 12:05:53;;;;;;;9.05;4.55;;;;;10.90;101977.00;;;;4988375;28;21197;-70
2021/05/14 12:08:21;;;;;;;8.15;4.75;;;;;10.90;101995.00;;;;4989229;28;20046;-69
2021/05/14 12:10:55;;;;;;;7.38;4.35;;;;;11.20;102005.00;;;;4986621;28;20078;-72
2021/05/14 12:14:03;;;;;;;8.07;4.60;;;;;11.10;101993.00;;;;4987754;28;20049;-70
2021/05/14 12:16:56;;;;;;;8.38;4.50;;;;;11.20;101986.00;;;;4971840;28;20056;-72
2021/05/14 12:19:25;;;;;;;9.25;4.30;;;;;11.60;101993.00;;;;4993473;28;20531;-70
2021/05/14 12:21:52;;;;;;;7.63;4.20;;;;;12.40;101978.00;;;;4992998;28;20056;-73
2021/05/14 12:24:21;;;;;;;7.93;4.60;;;;;13.40;101984.00;;;;4990741;28;20477;-71
2021/05/14 12:27:06;;;;;;;6.72;4.30;;;;;13.50;101999.00;;;;4992747;28;20057;-72
2021/05/14 12:29:33;;;;;;;6.40;3.97;;;;;13.20;102001.00;;;;4991552;28;22061;-72
2021/05/14 12:32:03;;;;;;;13.02;4.13;;;;;14.70;102000.00;;;;4992134;28;20045;-72
2021/05/14 12:34:33;;;;;;;8.50;3.90;;;;;15.50;101991.00;;;;4993425;28;20598;-72
2021/05/14 12:37:25;;;;;;;7.80;4.38;;;;;15.00;101999.00;;;;4988152;28;20054;-72
2021/05/14 12:40:30;;;;;;;7.47;4.25;;;;;15.40;101986.00;;;;4974354;28;20053;-72
2021/05/14 12:43:12;;;;;;;10.63;4.47;;;;;16.10;101970.00;;;;4917204;28;20593;-71
2021/05/14 12:45:41;;;;;;;;;;;;;16.30;101990.00;;;;4915520;28;20235;-72
2021/05/14 12:48:09;;;;;;;8.90;5.57;;;;;15.70;101952.00;;;;4917133;28;19926;-70
2021/05/14 12:50:36;;;;;;;11.63;5.40;;;;;14.80;101999.00;;;;4915747;28;20241;-71
2021/05/14 12:53:03;;;;;;;10.40;7.80;;;;;13.90;101990.00;;;;4927046;28;20579;-70
2021/05/14 12:55:52;;;;;;;13.40;8.52;;;;;14.80;101952.00;;;;5001961;28;20102;-72
2021/05/14 12:58:21;;;;;;;8.93;6.30;;;;;16.20;101889.00;;;;4999494;28;20060;-70
2021/05/14 13:00:48;;;;;;;10.43;7.00;;;;;16.00;101927.00;;;;4997806;28;20053;-70
2021/05/14 13:03:25;;;;;;;8.20;6.20;;;;;21.00;101772.00;;;;4998225;28;20053;-70
2021/05/14 13:05:57;;;;;;;8.70;4.72;;;;;19.90;101883.00;;;;4997746;28;20494;-69
2021/05/14 13:08:46;;;;;;;9.90;5.10;;;;;17.40;102005.00;;;;4998748;28;20807;-71
2021/05/14 13:11:42;;;;;;;21.98;9.05;;;;;16.50;102013.00;;;;4979347;28;20045;-71
2021/05/14 13:14:28;;;;;;;6.72;3.53;;;;;15.40;102009.00;;;;4980994;28;20045;-70
2021/05/14 13:16:55;;;;;;;44.72;21.60;;;;;16.70;101968.00;;;;4976501;28;20133;-73
2021/05/14 13:19:23;;;;;;;43.83;19.92;;;;;17.30;101964.00;;;;4977425;28;20246;-72
2021/05/14 13:21:53;;;;;;;30.23;12.93;;;;;18.60;101959.00;;;;4979964;28;20198;-72
2021/05/14 13:24:25;;;;;;;42.03;20.33;;;;;18.10;101985.00;;;;4981347;28;20051;-72
2021/05/14 13:26:52;;;;;;;10.13;4.80;;;;;17.10;101992.00;;;;4983083;28;20214;-72
2021/05/14 13:29:18;;;;;;;9.15;4.60;;;;;17.20;101965.00;;;;4992553;28;21994;-71
2021/05/14 13:31:45;;;;;;;12.23;4.20;;;;;17.80;101946.00;;;;4998664;28;20111;-69
2021/05/14 13:34:12;;;;;;;8.73;4.63;;;;;19.10;101919.00;;;;4988287;28;20516;-71
2021/05/14 13:36:38;;;;;;;11.23;3.97;;;;;18.30;101986.00;;;;5011561;28;20041;-63
2021/05/14 13:39:05;;;;;;;6.10;3.50;;;;;17.30;101984.00;;;;5012957;28;20041;-62
2021/05/14 13:41:33;;;;;;;5.78;3.40;;;;;16.50;102004.00;;;;5010964;28;20192;-64
2021/05/14 13:44:22;;;;;;;17.30;5.45;;;;;17.50;102013.00;;;;5007090;28;20041;-63
2021/05/14 13:46:49;;;;;;;15.55;4.40;;;;;19.90;101989.00;;;;4947485;28;20051;-63
2021/05/14 13:49:24;;;;;;;8.95;4.10;;;;;20.50;101976.00;;;;4944563;28;20505;-63
2021/05/14 13:51:53;;;;;;;9.15;4.45;;;;;21.00;101977.00;;;;4981570;28;20051;-62
2021/05/14 13:54:20;;;;;;;15.90;5.22;;;;;22.40;102005.00;;;;5009740;28;20029;-62
2021/05/14 13:56:46;;;;;;;15.63;6.75;;;;;19.90;102033.00;;;;5009892;28;20193;-64
2021/05/14 13:59:13;;;;;;;22.90;8.20;;;;;19.10;102018.00;;;;5009428;28;20033;-63
2021/05/14 14:01:39;;;;;;;16.40;7.10;;;;;19.90;102005.00;;;;5010104;28;20037;-62
2021/05/14 14:04:06;;;;;;;9.20;4.40;;;;;21.40;101974.00;;;;5010241;28;20029;-63
2021/05/14 14:06:32;;;;;;;13.18;4.43;;;;;21.40;101989.00;;;;5010402;28;20038;-66
2021/05/14 14:08:59;;;;;;;13.55;4.00;;;;;19.30;101982.00;;;;5016018;28;20127;-63
2021/05/14 14:11:29;;;;;;;6.80;4.20;;;;;19.50;102010.00;;;;5013029;28;20041;-64
2021/05/14 14:13:57;;;;;;;10.27;4.53;;;;;19.10;102021.00;;;;5014643;28;20095;-64
2021/05/14 14:16:23;;;;;;;8.73;3.67;;;;;18.40;102017.00;;;;5013870;28;20423;-63
2021/05/14 14:18:50;;;;;;;8.52;4.43;;;;;17.20;102022.00;;;;5014525;28;20053;-63
2021/05/14 14:21:16;;;;;;;9.07;5.18;;;;;17.90;102003.00;;;;5014242;28;20045;-64
2021/05/14 14:23:43;;;;;;;10.00;4.60;;;;;19.00;101980.00;;;;5014050;28;20038;-64
2021/05/14 14:26:09;;;;;;;15.02;5.53;;;;;18.60;102005.00;;;;5012843;28;20049;-62
2021/05/14 14:28:36;;;;;;;10.90;5.82;;;;;18.50;101988.00;;;;5012557;28;20111;-62
2021/05/14 14:31:03;;;;;;;8.88;4.70;;;;;20.40;101960.00;;;;5013733;28;20041;-64
2021/05/14 14:33:30;;;;;;;16.55;5.20;;;;;21.50;101994.00;;;;5013768;28;21743;-63
2021/05/14 14:35:56;;;;;;;13.70;5.80;;;;;20.40;102011.00;;;;5027530;28;20041;-64
2021/05/14 14:38:23;;;;;;;14.90;6.90;;;;;19.90;102011.00;;;;5011356;28;20092;-62
2021/05/14 14:40:49;;;;;;;19.40;7.28;;;;;21.10;101960.00;;;;5010219;28;20048;-63
2021/05/14 14:43:16;;;;;;;12.55;6.13;;;;;22.30;101962.00;;;;5012930;28;20502;-64
2021/05/14 14:45:42;;;;;;;10.48;5.85;;;;;21.70;101972.00;;;;5012219;28;20222;-62
2021/05/14 14:48:09;;;;;;;19.30;7.32;;;;;23.10;101947.00;;;;5010290;28;20045;-63
2021/05/14 14:50:36;;;;;;;17.17;7.32;;;;;23.60;101955.00;;;;5013458;28;20570;-63
2021/05/14 14:53:04;;;;;;;13.77;7.75;;;;;24.70;101914.00;;;;5012670;28;20038;-63
2021/05/14 14:55:30;;;;;;;24.92;7.88;;;;;26.60;101910.00;;;;5012445;28;20718;-62
2021/05/14 14:57:59;;;;;;;20.10;7.45;;;;;26.40;101905.00;;;;5020019;28;20029;-63
2021/05/14 15:00:25;;;;;;;12.82;7.70;;;;;27.50;101895.00;;;;5019644;28;20387;-63
2021/05/14 15:02:52;;;;;;;16.67;9.02;;;;;26.20;101944.00;;;;5020292;28;20120;-64
2021/05/14 15:05:20;;;;;;;19.67;8.65;;;;;26.50;101918.00;;;;5018340;28;20117;-62
2021/05/14 15:07:47;;;;;;;20.25;8.90;;;;;25.40;101953.00;;;;5018377;28;20487;-63
2021/05/14 15:10:14;;;;;;;22.05;9.32;;;;;24.40;101955.00;;;;5019844;28;20096;-63
2021/05/14 15:12:45;;;;;;;18.50;9.75;;;;;23.00;101947.00;;;;5019846;28;20155;-64
2021/05/14 15:15:12;;;;;;;21.98;9.32;;;;;23.70;101923.00;;;;5017748;28;20539;-62
2021/05/14 15:17:39;;;;;;;15.98;8.85;;;;;24.80;101915.00;;;;5018463;28;20468;-62
2021/05/14 15:20:06;;;;;;;20.95;10.35;;;;;24.90;101903.00;;;;5019586;28;20052;-63
2021/05/14 15:22:33;;;;;;;25.83;9.65;;;;;26.20;101904.00;;;;5019846;28;20404;-63
2021/05/14 15:25:00;;;;;;;20.45;10.25;;;;;25.50;101916.00;;;;5018688;28;20029;-64
2021/05/14 15:27:27;;;;;;;25.10;9.93;;;;;25.00;101931.00;;;;5016089;28;20438;-64
2021/05/14 15:29:53;;;;;;;18.48;9.95;;;;;24.80;101895.00;;;;5018562;28;20096;-64
2021/05/14 15:32:23;;;;;;;15.98;10.77;;;;;22.70;101926.00;;;;5017916;28;20037;-64
2021/05/14 15:34:50;;;;;;;27.63;10.65;;;;;22.30;101916.00;;;;5019525;28;20064;-63
2021/05/14 15:37:17;;;;;;;17.17;10.43;;;;;22.20;101905.00;;;;5018923;28;20026;-64
2021/05/14 15:39:44;;;;;;;21.23;11.07;;;;;21.30;101916.00;;;;5019499;28;20029;-64
2021/05/14 15:42:10;;;;;;;21.23;11.43;;;;;21.10;101932.00;;;;5018651;28;20124;-64
2021/05/14 15:44:37;;;;;;;21.42;11.13;;;;;20.90;101923.00;;;;5020774;28;20072;-63
2021/05/14 15:47:04;;;;;;;23.45;11.02;;;;;21.00;101917.00;;;;5022217;28;20032;-63
2021/05/14 15:49:30;;;;;;;23.40;11.32;;;;;20.80;101906.00;;;;5021749;28;20040;-63
2021/05/14 15:51:57;;;;;;;32.80;11.50;;;;;20.40;101917.00;;;;5022319;28;20061;-62
2021/05/14 15:54:27;;;;;;;20.83;10.40;;;;;20.30;101916.00;;;;5021443;28;20033;-62
2021/05/14 15:56:54;;;;;;;17.52;9.63;;;;;20.20;101901.00;;;;5019871;28;20037;-62
2021/05/14 15:59:20;;;;;;;23.05;10.82;;;;;20.00;101899.00;;;;5020552;28;20025;-63
2021/05/14 16:01:46;;;;;;;22.52;9.98;;;;;19.80;101890.00;;;;5018918;28;20033;-64
2021/05/14 16:04:13;;;;;;;21.85;10.90;;;;;19.90;101904.00;;;;5020634;28;20742;-62
2021/05/14 16:06:40;;;;;;;17.25;10.30;;;;;19.40;101874.00;;;;5019470;28;20029;-65
2021/05/14 16:09:06;;;;;;;25.80;10.48;;;;;19.40;101899.00;;;;5020894;28;20097;-64
2021/05/14 16:11:33;;;;;;;15.52;10.57;;;;;19.60;101891.00;;;;5019505;28;20033;-63
2021/05/14 16:14:01;;;;;;;16.77;10.73;;;;;19.90;101886.00;;;;5018268;28;20168;-64
2021/05/14 16:16:33;;;;;;;20.25;10.10;;;;;19.80;101884.00;;;;5023494;28;20405;-62
2021/05/14 16:19:00;;;;;;;22.70;10.80;;;;;19.70;101889.00;;;;5023184;28;20555;-62
2021/05/14 16:21:33;;;;;;;18.85;10.30;;;;;19.70;101871.00;;;;5024630;28;20083;-63
2021/05/14 16:24:00;;;;;;;16.70;10.43;;;;;19.60;101879.00;;;;5026232;28;20488;-64
2021/05/14 16:26:26;;;;;;;20.15;9.73;;;;;19.50;101888.00;;;;5024690;28;20037;-62
2021/05/14 16:28:53;;;;;;;20.23;10.18;;;;;19.30;101854.00;;;;5026367;28;20057;-61
2021/05/14 16:31:20;;;;;;;23.60;11.18;;;;;19.60;101846.00;;;;5025061;28;20068;-64
2021/05/14 16:33:46;;;;;;;27.77;11.35;;;;;19.70;101849.00;;;;5024573;28;20413;-63
2021/05/14 16:36:13;;;;;;;22.40;9.95;;;;;19.70;101847.00;;;;5039689;28;20120;-63
2021/05/14 16:38:40;;;;;;;24.40;11.15;;;;;19.80;101836.00;;;;5024940;28;20112;-63
2021/05/14 16:41:06;;;;;;;23.58;11.00;;;;;19.80;101835.00;;;;5023944;28;20029;-62
2021/05/14 16:43:33;;;;;;;25.92;11.80;;;;;19.70;101819.00;;;;5023172;28;20043;-63
2021/05/14 16:45:59;;;;;;;29.25;11.38;;;;;19.80;101829.00;;;;5024248;28;20042;-62
2021/05/14 16:48:26;;;;;;;24.63;11.63;;;;;19.90;101828.00;;;;5024982;28;20030;-62
2021/05/14 16:50:52;;;;;;;30.13;12.57;;;;;19.70;101835.00;;;;5017942;28;20030;-78
2021/05/14 16:53:19;;;;;;;21.40;11.25;;;;;19.60;101838.00;;;;5024338;28;20472;-77
2021/05/14 16:55:45;;;;;;;18.85;11.07;;;;;19.50;101831.00;;;;5019652;28;20044;-84
2021/05/14 16:58:12;;;;;;;27.20;11.50;;;;;19.50;101825.00;;;;5021922;28;20415;-68
2021/05/14 17:00:38;;;;;;;23.15;11.82;;;;;19.50;101817.00;;;;5021296;28;20029;-80
2021/05/14 17:03:07;;;;;;;29.08;12.55;;;;;19.60;101819.00;;;;5019983;28;20041;-65
2021/05/14 17:05:38;;;;;;;34.30;14.60;;;;;19.90;101808.00;;;;5021824;28;20017;-81
2021/05/14 17:08:05;;;;;;;50.72;15.27;;;;;20.30;101797.00;;;;5018332;28;20033;-81
2021/05/14 17:10:32;;;;;;;30.17;13.63;;;;;20.40;101807.00;;;;5020458;28;20041;-82
2021/05/14 17:12:59;;;;;;;30.00;14.20;;;;;20.50;101787.00;;;;5021909;28;20543;-87
2021/05/14 17:15:26;;;;;;;28.95;18.50;;;;;20.40;101797.00;;;;5020344;28;20475;-79
2021/05/14 17:17:53;;;;;;;41.25;17.40;;;;;20.30;101789.00;;;;5020111;28;20119;-84
2021/05/14 17:20:21;;;;;;;33.45;16.83;;;;;20.20;101789.00;;;;5021699;28;20037;-65
2021/05/14 17:22:48;;;;;;;31.52;18.63;;;;;20.20;101768.00;;;;5021853;28;20041;-63
2021/05/14 17:25:15;;;;;;;30.88;17.58;;;;;20.20;101789.00;;;;5024591;28;20438;-65
2021/05/14 17:27:42;;;;;;;37.05;18.13;;;;;19.90;101771.00;;;;5024666;28;20084;-65
2021/05/14 17:30:09;;;;;;;30.08;17.05;;;;;20.00;101756.00;;;;5024635;28;20040;-64
